createdAt,value
2022-12-13T00:01:52.874Z,47.61
2022-12-13T00:04:24.286Z,47.69
2022-12-13T00:06:53.931Z,48.12
2022-12-13T00:09:23.267Z,47.93
2022-12-13T00:11:54.763Z,47.19
2022-12-13T00:14:23.029Z,47.90
2022-12-13T00:16:52.141Z,47.86
2022-12-13T00:19:21.339Z,47.75
2022-12-13T00:21:50.063Z,48.06
2022-12-13T00:24:18.299Z,47.99
2022-12-13T00:26:46.888Z,47.60
2022-12-13T00:29:16.722Z,47.81
2022-12-13T00:31:59.270Z,47.78
2022-12-13T00:34:29.610Z,47.61
2022-12-13T00:36:59.698Z,47.93
2022-12-13T00:39:28.427Z,47.63
2022-12-13T00:41:56.755Z,47.51
2022-12-13T00:44:26.635Z,47.71
2022-12-13T00:46:54.896Z,47.60
2022-12-13T00:49:23.238Z,47.80
2022-12-13T00:51:51.474Z,47.71
2022-12-13T00:54:19.763Z,47.73
2022-12-13T00:56:48.006Z,47.46
2022-12-13T00:59:16.821Z,47.88
2022-12-13T01:01:46.501Z,47.39
2022-12-13T01:04:15.192Z,47.88
2022-12-13T01:06:46.828Z,47.74
2022-12-13T01:09:19.454Z,48.00
2022-12-13T01:11:48.846Z,47.96
2022-12-13T01:14:18.516Z,47.46
2022-12-13T01:16:48.267Z,47.89
2022-12-13T01:19:17.376Z,47.81
2022-12-13T01:21:45.693Z,47.93
2022-12-13T01:24:14.040Z,47.31
2022-12-13T01:26:42.317Z,47.90
2022-12-13T01:29:11.428Z,47.44
2022-12-13T01:31:41.681Z,47.19
2022-12-13T01:34:12.374Z,47.45
2022-12-13T01:36:41.593Z,47.71
2022-12-13T01:39:15.111Z,47.30
2022-12-13T01:41:45.532Z,47.27
2022-12-13T01:44:59.276Z,47.80
2022-12-13T01:47:33.229Z,47.48
2022-12-13T01:50:08.980Z,47.55
2022-12-13T01:52:37.930Z,47.01
2022-12-13T01:55:09.989Z,47.81
2022-12-13T01:57:45.447Z,47.39
2022-12-13T02:00:15.967Z,47.46
2022-12-13T02:02:44.443Z,47.20
2022-12-13T02:05:22.990Z,47.59
2022-12-13T02:07:51.884Z,47.49
2022-12-13T02:10:20.642Z,47.74
2022-12-13T02:12:49.137Z,47.75
2022-12-13T02:15:19.961Z,47.77
2022-12-13T02:18:07.965Z,47.36
2022-12-13T02:21:07.765Z,47.64
2022-12-13T02:24:29.183Z,47.50
2022-12-13T02:27:14.132Z,47.71
2022-12-13T02:30:24.505Z,47.70
2022-12-13T02:33:40.247Z,47.64
2022-12-13T02:36:14.721Z,47.53
2022-12-13T02:38:55.278Z,47.89
2022-12-13T02:41:36.211Z,47.82
2022-12-13T02:44:22.466Z,47.83
2022-12-13T02:46:56.811Z,47.51
2022-12-13T02:49:29.639Z,47.81
2022-12-13T02:51:59.107Z,48.00
2022-12-13T02:54:27.367Z,47.85
2022-12-13T02:56:56.602Z,47.82
2022-12-13T02:59:29.220Z,48.12
2022-12-13T03:02:12.850Z,48.42
2022-12-13T03:05:20.761Z,48.30
2022-12-13T03:08:13.014Z,48.55
2022-12-13T03:10:55.167Z,48.69
2022-12-13T03:13:38.887Z,48.89
2022-12-13T03:16:22.574Z,48.96
2022-12-13T03:18:54.443Z,49.04
2022-12-13T03:21:22.895Z,48.68
2022-12-13T03:23:51.375Z,49.10
2022-12-13T03:26:23.967Z,49.10
2022-12-13T03:28:53.829Z,48.93
2022-12-13T03:31:22.813Z,48.95
2022-12-13T03:33:52.492Z,49.24
2022-12-13T03:36:21.821Z,49.11
2022-12-13T03:38:52.377Z,49.15
2022-12-13T03:41:24.478Z,49.15
2022-12-13T03:43:52.848Z,49.12
2022-12-13T03:46:21.188Z,48.79
2022-12-13T03:48:49.523Z,49.64
2022-12-13T03:51:19.114Z,49.63
2022-12-13T03:53:47.460Z,49.47
2022-12-13T03:56:15.784Z,49.66
2022-12-13T03:58:44.208Z,50.22
2022-12-13T04:01:15.862Z,49.97
2022-12-13T04:03:47.322Z,50.18
2022-12-13T04:06:22.347Z,50.39
2022-12-13T04:08:52.354Z,50.40
2022-12-13T04:11:43.049Z,50.25
2022-12-13T04:14:12.321Z,50.31
2022-12-13T04:16:50.902Z,50.21
2022-12-13T04:19:22.947Z,50.24
2022-12-13T04:21:54.729Z,50.42
2022-12-13T04:24:31.025Z,50.51
2022-12-13T04:27:01.029Z,49.80
2022-12-13T04:29:34.166Z,49.79
2022-12-13T04:32:04.777Z,49.75
2022-12-13T04:34:37.640Z,49.89
2022-12-13T04:37:07.683Z,49.58
2022-12-13T04:39:36.256Z,50.16
2022-12-13T04:42:05.474Z,50.15
2022-12-13T04:44:36.883Z,50.29
2022-12-13T04:47:05.973Z,50.20
2022-12-13T04:49:35.116Z,50.16
2022-12-13T04:52:03.998Z,50.26
2022-12-13T04:54:36.663Z,50.27
2022-12-13T04:57:12.154Z,50.09
2022-12-13T04:59:41.450Z,50.49
2022-12-13T05:02:11.640Z,50.73
2022-12-13T05:04:40.101Z,50.74
2022-12-13T05:07:08.649Z,50.67
2022-12-13T05:09:38.296Z,50.59
2022-12-13T05:12:22.769Z,51.02
2022-12-13T05:14:52.151Z,51.10
2022-12-13T05:17:21.200Z,51.01
2022-12-13T05:19:49.487Z,50.90
2022-12-13T05:22:20.826Z,50.79
2022-12-13T05:24:50.888Z,50.87
2022-12-13T05:27:24.949Z,50.74
2022-12-13T05:30:03.308Z,50.77
2022-12-13T05:32:43.871Z,50.84
2022-12-13T05:35:14.214Z,50.88
2022-12-13T05:37:53.314Z,51.07
2022-12-13T05:40:24.096Z,50.58
2022-12-13T05:43:01.397Z,50.76
2022-12-13T05:45:31.093Z,51.06
2022-12-13T05:47:59.798Z,50.98
2022-12-13T05:50:28.097Z,50.68
2022-12-13T05:52:56.382Z,51.13
2022-12-13T05:55:26.030Z,50.96
2022-12-13T05:57:54.246Z,51.31
2022-12-13T06:00:31.214Z,51.13
2022-12-13T06:03:00.477Z,51.27
2022-12-13T06:05:30.153Z,51.50
2022-12-13T06:07:58.920Z,51.23
2022-12-13T06:10:34.865Z,51.47
2022-12-13T06:13:09.336Z,51.08
2022-12-13T06:15:51.116Z,51.56
2022-12-13T06:18:20.021Z,51.06
2022-12-13T06:20:58.520Z,51.21
2022-12-13T06:23:27.101Z,51.75
2022-12-13T06:25:56.742Z,51.26
2022-12-13T06:28:24.959Z,51.33
2022-12-13T06:30:53.372Z,51.23
2022-12-13T06:33:23.390Z,51.56
2022-12-13T06:35:52.681Z,51.68
2022-12-13T06:38:31.106Z,51.89
2022-12-13T06:41:11.537Z,51.58
2022-12-13T06:43:42.792Z,51.76
2022-12-13T06:46:11.851Z,51.34
2022-12-13T06:48:41.573Z,51.80
2022-12-13T06:51:10.581Z,51.77
2022-12-13T06:53:40.893Z,51.43
2022-12-13T06:56:14.184Z,51.65
2022-12-13T06:58:43.794Z,51.27
2022-12-13T07:01:23.952Z,51.49
2022-12-13T07:03:55.854Z,51.43
2022-12-13T07:06:27.406Z,51.70
2022-12-13T07:08:58.592Z,51.37
2022-12-13T07:11:30.926Z,51.53
2022-12-13T07:14:00.088Z,50.89
2022-12-13T07:16:29.909Z,50.86
2022-12-13T07:19:01.053Z,50.66
2022-12-13T07:21:30.917Z,51.34
2022-12-13T07:23:59.563Z,50.47
2022-12-13T07:26:29.345Z,50.89
2022-12-13T07:28:58.193Z,50.38
2022-12-13T07:31:27.904Z,50.34
2022-12-13T07:33:56.323Z,51.09
2022-12-13T07:36:25.142Z,51.19
2022-12-13T07:38:55.462Z,51.11
2022-12-13T07:41:24.524Z,50.67
2022-12-13T07:43:55.446Z,50.81
2022-12-13T07:46:33.068Z,50.32
2022-12-13T07:49:03.496Z,50.13
2022-12-13T07:51:33.736Z,50.67
2022-12-13T07:54:06.353Z,50.58
2022-12-13T07:56:35.384Z,50.82
2022-12-13T07:59:05.127Z,50.21
2022-12-13T08:01:34.713Z,50.35
2022-12-13T08:04:03.480Z,50.19
2022-12-13T08:06:36.077Z,50.45
2022-12-13T08:09:05.771Z,50.37
2022-12-13T08:11:34.525Z,50.76
2022-12-13T08:14:04.450Z,50.54
2022-12-13T08:16:32.843Z,50.70
2022-12-13T08:19:04.386Z,50.21
2022-12-13T08:21:55.095Z,50.40
2022-12-13T08:24:25.288Z,50.17
2022-12-13T08:26:53.574Z,49.94
2022-12-13T08:29:34.820Z,50.63
2022-12-13T08:32:06.068Z,50.09
2022-12-13T08:34:34.361Z,50.77
2022-12-13T08:37:04.043Z,50.11
2022-12-13T08:39:35.344Z,49.80
2022-12-13T08:42:16.170Z,50.45
2022-12-13T08:44:49.207Z,50.53
2022-12-13T08:47:24.481Z,50.64
2022-12-13T08:49:55.977Z,50.58
2022-12-13T08:52:30.881Z,50.54
2022-12-13T08:54:59.225Z,50.96
2022-12-13T08:57:27.473Z,50.71
2022-12-13T08:59:57.055Z,51.02
2022-12-13T09:02:25.625Z,50.86
2022-12-13T09:04:54.175Z,50.49
2022-12-13T09:07:22.458Z,51.26
2022-12-13T09:09:54.804Z,50.28
2022-12-13T09:12:30.300Z,50.69
2022-12-13T09:15:01.996Z,51.05
2022-12-13T09:17:37.207Z,50.64
2022-12-13T09:20:10.259Z,51.18
2022-12-13T09:23:01.174Z,50.38
2022-12-13T09:25:37.213Z,50.85
2022-12-13T09:28:09.333Z,50.74
2022-12-13T09:30:40.138Z,50.91
2022-12-13T09:33:28.258Z,50.86
2022-12-13T09:35:56.821Z,51.85
2022-12-13T09:38:25.148Z,52.25
2022-12-13T09:40:59.210Z,52.44
2022-12-13T09:43:33.474Z,53.19
2022-12-13T09:46:23.777Z,53.15
2022-12-13T09:49:01.771Z,53.55
2022-12-13T09:51:43.019Z,53.35
2022-12-13T09:54:20.170Z,53.90
2022-12-13T09:56:51.206Z,53.72
2022-12-13T09:59:22.657Z,54.01
2022-12-13T10:01:52.410Z,53.89
2022-12-13T10:04:20.860Z,54.16
2022-12-13T10:06:54.356Z,53.83
2022-12-13T10:09:23.161Z,53.73
2022-12-13T10:11:54.037Z,53.46
2022-12-13T10:14:27.857Z,53.25
2022-12-13T10:17:01.729Z,52.69
2022-12-13T10:19:36.939Z,52.40
2022-12-13T10:22:09.448Z,52.08
2022-12-13T10:24:52.231Z,51.54
2022-12-13T10:27:28.647Z,51.11
2022-12-13T10:30:11.839Z,50.93
2022-12-13T10:32:55.101Z,50.56
2022-12-13T10:35:27.379Z,50.42
2022-12-13T10:37:57.636Z,50.35
2022-12-13T10:40:34.205Z,50.00
2022-12-13T10:43:21.988Z,49.26
2022-12-13T10:46:01.463Z,49.17
2022-12-13T10:48:39.996Z,48.87
2022-12-13T10:51:11.654Z,48.71
2022-12-13T10:53:47.820Z,48.29
2022-12-13T10:56:23.015Z,48.05
2022-12-13T10:59:16.605Z,47.76
2022-12-13T11:01:45.920Z,47.69
2022-12-13T11:04:28.415Z,47.30
2022-12-13T11:06:58.466Z,47.10
2022-12-13T11:09:30.302Z,46.72
2022-12-13T11:12:16.329Z,46.88
2022-12-13T11:14:55.569Z,46.69
2022-12-13T11:17:27.634Z,46.51
2022-12-13T11:20:02.055Z,46.54
2022-12-13T11:22:32.425Z,46.24
2022-12-13T11:25:04.584Z,46.13
2022-12-13T11:28:02.146Z,45.95
2022-12-13T11:30:38.834Z,46.06
2022-12-13T11:33:19.931Z,46.07
2022-12-13T11:36:04.620Z,46.00
2022-12-13T11:38:41.633Z,46.05
2022-12-13T11:41:32.168Z,46.17
2022-12-13T11:44:08.566Z,46.21
2022-12-13T11:46:43.705Z,46.14
2022-12-13T11:49:18.052Z,46.07
2022-12-13T11:51:53.364Z,46.06
2022-12-13T11:54:30.379Z,46.17
2022-12-13T11:57:05.130Z,45.87
2022-12-13T11:59:40.803Z,46.08
2022-12-13T12:02:21.647Z,45.91
2022-12-13T12:04:59.635Z,46.12
2022-12-13T12:07:44.622Z,45.91
2022-12-13T12:10:35.924Z,46.06
2022-12-13T12:13:14.908Z,45.74
2022-12-13T12:15:55.101Z,45.78
2022-12-13T12:18:24.124Z,45.69
2022-12-13T12:21:13.872Z,45.68
2022-12-13T12:24:00.885Z,45.68
2022-12-13T12:26:38.385Z,45.70
2022-12-13T12:29:35.143Z,45.89
2022-12-13T12:32:17.527Z,45.87
2022-12-13T12:34:53.865Z,45.91
2022-12-13T12:37:34.443Z,46.08
2022-12-13T12:41:07.095Z,46.05
2022-12-13T12:43:32.301Z,46.08
2022-12-13T12:46:25.530Z,46.04
2022-12-13T12:49:30.769Z,46.25
2022-12-13T12:52:06.662Z,45.98
2022-12-13T12:54:46.460Z,46.12
2022-12-13T12:57:24.934Z,46.07
2022-12-13T13:00:04.572Z,46.11
2022-12-13T13:02:41.812Z,45.93
2022-12-13T13:05:20.596Z,46.13
2022-12-13T13:07:55.677Z,46.13
2022-12-13T13:10:26.274Z,46.13
2022-12-13T13:13:12.514Z,46.07
2022-12-13T13:15:58.275Z,46.25
2022-12-13T13:18:51.166Z,46.16
2022-12-13T13:21:46.002Z,46.30
2022-12-13T13:24:24.241Z,46.11
2022-12-13T13:26:56.549Z,46.11
2022-12-13T13:29:44.254Z,46.27
2022-12-13T13:32:30.218Z,46.13
2022-12-13T13:35:51.079Z,46.01
2022-12-13T13:38:53.200Z,46.24
2022-12-13T13:41:56.317Z,46.12
2022-12-13T13:44:54.141Z,46.10
2022-12-13T13:47:44.496Z,46.26
2022-12-13T13:50:46.580Z,46.23
2022-12-13T13:54:10.066Z,46.27
2022-12-13T13:58:07.680Z,46.37
2022-12-13T14:00:24.750Z,46.35
2022-12-13T14:03:44.241Z,46.22
2022-12-13T14:07:00.730Z,46.24
2022-12-13T14:09:59.775Z,46.49
2022-12-13T14:13:04.972Z,46.21
2022-12-13T14:16:31.656Z,46.33
2022-12-13T14:19:58.660Z,46.24
2022-12-13T14:22:36.184Z,46.05
2022-12-13T14:25:51.225Z,46.17
2022-12-13T14:28:34.248Z,46.24
2022-12-13T14:31:03.084Z,46.07
2022-12-13T14:33:31.612Z,46.20
2022-12-13T14:36:03.703Z,46.56
2022-12-13T14:38:33.548Z,46.05
2022-12-13T14:41:05.976Z,46.15
2022-12-13T14:43:36.568Z,46.08
2022-12-13T14:46:08.207Z,46.06
2022-12-13T14:48:43.634Z,46.35
2022-12-13T14:51:33.293Z,45.94
2022-12-13T14:54:03.818Z,46.04
2022-12-13T14:56:32.144Z,46.19
2022-12-13T14:59:03.749Z,46.24
2022-12-13T15:01:34.373Z,46.14
2022-12-13T15:04:27.267Z,46.05
2022-12-13T15:07:06.424Z,46.45
2022-12-13T15:09:39.475Z,46.28
2022-12-13T15:12:23.520Z,46.39
2022-12-13T15:14:59.710Z,46.53
2022-12-13T15:17:34.747Z,46.12
2022-12-13T15:20:09.381Z,46.44
2022-12-13T15:22:39.146Z,46.41
2022-12-13T15:25:08.272Z,46.58
2022-12-13T15:27:36.848Z,46.34
2022-12-13T15:30:06.465Z,46.30
2022-12-13T15:32:34.737Z,46.57
2022-12-13T15:35:17.413Z,46.68
2022-12-13T15:37:48.425Z,46.67
2022-12-13T15:40:16.857Z,46.60
2022-12-13T15:42:47.988Z,46.45
2022-12-13T15:45:22.947Z,46.89
2022-12-13T15:47:51.995Z,46.70
2022-12-13T15:50:35.077Z,46.94
2022-12-13T15:53:08.070Z,46.96
2022-12-13T15:55:37.950Z,46.87
2022-12-13T15:58:27.197Z,46.80
2022-12-13T16:00:55.523Z,47.18
2022-12-13T16:03:26.211Z,47.13
2022-12-13T16:05:57.344Z,47.08
2022-12-13T16:08:31.898Z,47.13
2022-12-13T16:11:01.043Z,46.94
2022-12-13T16:13:31.927Z,47.01
2022-12-13T16:16:08.826Z,47.27
2022-12-13T16:18:47.141Z,47.36
2022-12-13T16:21:15.549Z,47.53
2022-12-13T16:23:48.195Z,47.18
2022-12-13T16:26:24.024Z,47.52
2022-12-13T16:28:52.387Z,47.37
2022-12-13T16:31:26.050Z,47.23
2022-12-13T16:33:54.497Z,47.47
2022-12-13T16:36:22.808Z,47.65
2022-12-13T16:38:52.561Z,47.76
2022-12-13T16:41:22.039Z,47.85
2022-12-13T16:43:56.680Z,47.74
2022-12-13T16:47:13.709Z,47.71
2022-12-13T16:49:22.329Z,47.79
2022-12-13T16:51:50.653Z,47.81
2022-12-13T16:54:22.352Z,47.69
2022-12-13T16:56:51.732Z,47.90
2022-12-13T16:59:22.912Z,48.10
2022-12-13T17:01:51.495Z,48.13
2022-12-13T17:04:22.470Z,48.03
2022-12-13T17:06:54.931Z,47.73
2022-12-13T17:09:25.956Z,47.69
2022-12-13T17:11:54.441Z,47.91
2022-12-13T17:14:22.736Z,48.12
2022-12-13T17:16:51.065Z,47.84
2022-12-13T17:19:19.750Z,48.09
2022-12-13T17:21:48.227Z,48.09
2022-12-13T17:24:16.486Z,48.38
2022-12-13T17:26:54.434Z,48.32
2022-12-13T17:29:24.634Z,48.31
2022-12-13T17:31:53.318Z,48.01
2022-12-13T17:34:21.621Z,47.94
2022-12-13T17:36:49.880Z,48.23
2022-12-13T17:39:18.352Z,48.23
2022-12-13T17:41:55.154Z,48.07
2022-12-13T17:44:25.315Z,47.92
2022-12-13T17:46:55.071Z,48.05
2022-12-13T17:49:24.295Z,48.19
2022-12-13T17:51:54.098Z,48.16
2022-12-13T17:54:23.902Z,48.07
2022-12-13T17:56:54.736Z,47.95
2022-12-13T17:59:23.725Z,48.45
2022-12-13T18:01:52.577Z,48.14
2022-12-13T18:04:21.798Z,47.92
2022-12-13T18:06:51.355Z,48.29
2022-12-13T18:09:20.598Z,47.63
2022-12-13T18:11:48.998Z,48.07
2022-12-13T18:14:18.633Z,48.25
2022-12-13T18:16:46.914Z,48.17
2022-12-13T18:19:15.363Z,48.26
2022-12-13T18:21:44.277Z,48.57
2022-12-13T18:24:13.258Z,48.37
2022-12-13T18:26:41.628Z,48.80
2022-12-13T18:29:10.342Z,48.72
2022-12-13T18:31:40.063Z,48.54
2022-12-13T18:34:09.502Z,49.10
2022-12-13T18:36:39.495Z,48.74
2022-12-13T18:39:07.927Z,48.93
2022-12-13T18:41:36.297Z,49.13
2022-12-13T18:44:07.937Z,49.16
2022-12-13T18:46:43.365Z,48.81
2022-12-13T18:49:14.470Z,48.73
2022-12-13T18:51:42.831Z,48.91
2022-12-13T18:54:11.177Z,48.94
2022-12-13T18:56:39.471Z,48.97
2022-12-13T18:59:07.818Z,48.79
2022-12-13T19:01:36.221Z,48.72
2022-12-13T19:04:06.306Z,48.89
2022-12-13T19:06:34.677Z,48.78
2022-12-13T19:09:02.988Z,48.74
2022-12-13T19:11:32.089Z,48.74
2022-12-13T19:14:00.463Z,48.86
2022-12-13T19:16:29.148Z,48.96
2022-12-13T19:18:58.820Z,48.57
2022-12-13T19:21:28.523Z,48.87
2022-12-13T19:24:01.185Z,49.05
2022-12-13T19:26:30.700Z,48.77
2022-12-13T19:29:00.412Z,48.95
2022-12-13T19:31:32.158Z,48.74
2022-12-13T19:34:01.647Z,49.04
2022-12-13T19:36:33.642Z,48.93
2022-12-13T19:39:02.136Z,48.71
2022-12-13T19:41:33.513Z,48.70
2022-12-13T19:44:04.648Z,48.75
2022-12-13T19:46:33.339Z,48.94
2022-12-13T19:49:02.015Z,48.73
2022-12-13T19:51:37.482Z,48.59
2022-12-13T19:54:08.221Z,48.58
2022-12-13T19:56:36.528Z,48.42
2022-12-13T19:59:05.216Z,48.88
2022-12-13T20:01:33.945Z,48.53
2022-12-13T20:04:02.667Z,48.88
2022-12-13T20:06:32.442Z,48.89
2022-12-13T20:09:00.857Z,48.46
2022-12-13T20:11:29.922Z,48.81
2022-12-13T20:13:59.305Z,48.66
2022-12-13T20:16:28.260Z,48.51
2022-12-13T20:18:57.880Z,48.44
2022-12-13T20:21:27.215Z,48.65
2022-12-13T20:23:57.719Z,48.77
2022-12-13T20:26:29.398Z,48.65
2022-12-13T20:28:58.302Z,48.72
2022-12-13T20:31:31.277Z,49.13
2022-12-13T20:34:02.442Z,48.89
2022-12-13T20:36:32.893Z,49.05
2022-12-13T20:39:05.398Z,48.87
2022-12-13T20:41:36.489Z,48.56
2022-12-13T20:44:07.719Z,48.93
2022-12-13T20:46:36.618Z,49.22
2022-12-13T20:49:08.623Z,48.87
2022-12-13T20:51:38.712Z,48.89
2022-12-13T20:54:08.853Z,49.11
2022-12-13T20:56:39.157Z,48.80
2022-12-13T20:59:11.463Z,48.89
2022-12-13T21:01:41.722Z,49.17
2022-12-13T21:04:12.201Z,48.88
2022-12-13T21:06:42.352Z,49.45
2022-12-13T21:09:13.224Z,49.01
2022-12-13T21:11:43.580Z,49.21
2022-12-13T21:14:21.322Z,49.26
2022-12-13T21:16:52.745Z,49.47
2022-12-13T21:19:23.135Z,49.29
2022-12-13T21:21:52.302Z,49.43
2022-12-13T21:24:24.532Z,48.83
2022-12-13T21:26:53.170Z,49.05
2022-12-13T21:29:21.507Z,49.08
2022-12-13T21:31:51.040Z,48.86
2022-12-13T21:34:22.724Z,48.84
2022-12-13T21:36:53.832Z,49.03
2022-12-13T21:39:27.808Z,48.99
2022-12-13T21:41:56.537Z,48.97
2022-12-13T21:44:25.153Z,48.70
2022-12-13T21:49:42.060Z,49.05
2022-12-13T21:52:17.245Z,48.69
2022-12-13T21:54:46.946Z,48.99
2022-12-13T21:57:32.543Z,49.17
2022-12-13T22:00:00.789Z,48.89
2022-12-13T22:02:29.108Z,49.01
2022-12-13T22:04:59.321Z,49.13
2022-12-13T22:07:30.014Z,48.63
2022-12-13T22:10:01.858Z,49.19
2022-12-13T22:12:35.876Z,48.84
2022-12-13T22:15:05.719Z,48.99
2022-12-13T22:17:36.022Z,48.75
2022-12-13T22:20:06.350Z,49.09
2022-12-13T22:22:34.856Z,48.46
2022-12-13T22:25:04.834Z,48.58
2022-12-13T22:27:33.214Z,48.60
2022-12-13T22:30:01.456Z,48.64
2022-12-13T22:32:32.171Z,48.79
2022-12-13T22:35:00.644Z,48.69
2022-12-13T22:37:29.641Z,48.81
2022-12-13T22:39:57.930Z,48.42
2022-12-13T22:42:27.594Z,48.69
2022-12-13T22:44:55.805Z,49.04
2022-12-13T22:47:24.096Z,48.64
2022-12-13T22:49:52.343Z,48.77
2022-12-13T22:52:20.587Z,49.15
2022-12-13T22:54:48.779Z,48.52
2022-12-13T22:57:17.050Z,49.06
2022-12-13T22:59:46.660Z,48.72
2022-12-13T23:02:15.094Z,48.62
2022-12-13T23:04:43.463Z,48.80
2022-12-13T23:07:11.672Z,48.49
2022-12-13T23:09:40.064Z,48.71
2022-12-13T23:12:25.974Z,49.03
2022-12-13T23:14:55.588Z,48.97
2022-12-13T23:17:23.803Z,48.86
2022-12-13T23:19:53.418Z,49.04
2022-12-13T23:22:23.690Z,48.78
2022-12-13T23:24:52.599Z,49.26
2022-12-13T23:27:22.961Z,48.59
2022-12-13T23:29:51.576Z,48.50
2022-12-13T23:32:21.200Z,48.46
2022-12-13T23:34:49.392Z,48.66
2022-12-13T23:37:17.679Z,48.88
2022-12-13T23:39:45.915Z,49.00
2022-12-13T23:42:14.197Z,48.84
2022-12-13T23:44:43.388Z,48.45
2022-12-13T23:47:11.698Z,48.63
2022-12-13T23:49:41.264Z,48.92
2022-12-13T23:52:09.520Z,49.00
2022-12-13T23:54:37.834Z,48.72
2022-12-13T23:57:06.172Z,48.31
2022-12-13T23:59:34.408Z,48.60
